DAL536 KMCO-KATL
Flight info
| Callsign | DAL536 |
|---|---|
| Flight time | 1h 4m |
| Altitude | 35000 |
| Route | JEEMY4 PAINN SHRKS LAIRI LARZZ JJEDI4 |
| Aircraft | A20N/M-SDE2E3FGHIRWXY/LB1 |
Departure
| Time | 2026-05-05 02:03 |
|---|---|
| Airport | Orlando International Airport (KMCO) |
Arrival
| Time | 2026-05-05 03:07 |
|---|---|
| Airport | Hartsfield Jackson Atlanta International Airport (KATL) |
| Time | Latitude | Longitude | Altitude | Speed | Heading |
|---|---|---|---|---|---|
| 2026-05-05 01:43 | 28.42874 | -81.29990 | 104 ft | 0 kts | 258° |
| 2026-05-05 01:51 | 28.42877 | -81.29974 | 104 ft | 2 kts | 258° |
| 2026-05-05 01:52 | 28.42880 | -81.29957 | 104 ft | 2 kts | 259° |
| 2026-05-05 01:52 | 28.42883 | -81.29942 | 104 ft | 0 kts | 258° |
| 2026-05-05 01:52 | 28.42886 | -81.29929 | 104 ft | 2 kts | 239° |
| 2026-05-05 01:52 | 28.42896 | -81.29917 | 104 ft | 2 kts | 211° |
| 2026-05-05 01:53 | 28.42911 | -81.29911 | 104 ft | 2 kts | 182° |
| 2026-05-05 01:53 | 28.42926 | -81.29914 | 104 ft | 2 kts | 154° |
| 2026-05-05 01:53 | 28.42937 | -81.29924 | 104 ft | 2 kts | 127° |
| 2026-05-05 01:53 | 28.42941 | -81.29931 | 104 ft | 1 kts | 114° |
| 2026-05-05 01:54 | 28.42943 | -81.29935 | 104 ft | 0 kts | 117° |
| 2026-05-05 01:56 | 28.42942 | -81.29934 | 104 ft | 0 kts | 117° |
| 2026-05-05 01:57 | 28.42935 | -81.29918 | 104 ft | 5 kts | 118° |
| 2026-05-05 01:57 | 28.42915 | -81.29848 | 104 ft | 11 kts | 95° |
| 2026-05-05 01:57 | 28.42909 | -81.29753 | 104 ft | 12 kts | 101° |
| 2026-05-05 01:57 | 28.42846 | -81.29707 | 104 ft | 12 kts | 178° |
| 2026-05-05 01:58 | 28.42794 | -81.29706 | 104 ft | 12 kts | 180° |
| 2026-05-05 01:58 | 28.42779 | -81.29705 | 104 ft | 12 kts | 179° |
| 2026-05-05 01:58 | 28.42687 | -81.29703 | 104 ft | 13 kts | 180° |
| 2026-05-05 01:58 | 28.42591 | -81.29703 | 104 ft | 14 kts | 179° |
| 2026-05-05 01:59 | 28.42488 | -81.29702 | 104 ft | 15 kts | 180° |
| 2026-05-05 01:59 | 28.42374 | -81.29700 | 104 ft | 17 kts | 179° |
| 2026-05-05 01:59 | 28.42243 | -81.29700 | 104 ft | 19 kts | 180° |
| 2026-05-05 01:59 | 28.42103 | -81.29697 | 104 ft | 21 kts | 180° |
| 2026-05-05 02:00 | 28.41951 | -81.29695 | 104 ft | 22 kts | 181° |
| 2026-05-05 02:00 | 28.41789 | -81.29695 | 104 ft | 23 kts | 179° |
| 2026-05-05 02:00 | 28.41624 | -81.29694 | 104 ft | 24 kts | 180° |
| 2026-05-05 02:00 | 28.41456 | -81.29691 | 104 ft | 23 kts | 179° |
| 2026-05-05 02:01 | 28.41294 | -81.29688 | 104 ft | 22 kts | 181° |
| 2026-05-05 02:01 | 28.41136 | -81.29686 | 104 ft | 22 kts | 178° |
| 2026-05-05 02:01 | 28.40984 | -81.29686 | 104 ft | 21 kts | 182° |
| 2026-05-05 02:01 | 28.40870 | -81.29684 | 104 ft | 13 kts | 177° |
| 2026-05-05 02:02 | 28.40817 | -81.29630 | 104 ft | 11 kts | 96° |
| 2026-05-05 02:02 | 28.40858 | -81.29561 | 104 ft | 11 kts | 10° |
| 2026-05-05 02:02 | 28.41019 | -81.29562 | 104 ft | 51 kts | 359° |
| 2026-05-05 02:02 | 28.41643 | -81.29569 | 104 ft | 125 kts | 360° |
| 2026-05-05 02:03 | 28.42728 | -81.29582 | 125 ft | 181 kts | 1° |
| 2026-05-05 02:03 | 28.43997 | -81.29627 | 782 ft | 184 kts | 3° |
| 2026-05-05 02:03 | 28.45259 | -81.29484 | 1586 ft | 182 kts | 19° |
| 2026-05-05 02:03 | 28.46357 | -81.28961 | 2426 ft | 173 kts | 36° |
| 2026-05-05 02:04 | 28.47408 | -81.28193 | 2921 ft | 188 kts | 38° |
| 2026-05-05 02:04 | 28.48546 | -81.27348 | 3399 ft | 206 kts | 36° |
| 2026-05-05 02:04 | 28.49820 | -81.26447 | 3906 ft | 222 kts | 34° |
| 2026-05-05 02:04 | 28.51268 | -81.25608 | 4352 ft | 245 kts | 20° |
| 2026-05-05 02:05 | 28.52948 | -81.25204 | 5151 ft | 251 kts | 6° |
| 2026-05-05 02:05 | 28.54729 | -81.25068 | 5746 ft | 266 kts | 1° |
| 2026-05-05 02:05 | 28.56596 | -81.25110 | 6382 ft | 274 kts | 355° |
| 2026-05-05 02:05 | 28.58493 | -81.25421 | 6814 ft | 275 kts | 345° |
| 2026-05-05 02:06 | 28.60314 | -81.26136 | 6973 ft | 276 kts | 336° |
| 2026-05-05 02:06 | 28.62057 | -81.27013 | 6976 ft | 275 kts | 334° |
| 2026-05-05 02:06 | 28.63770 | -81.28004 | 6978 ft | 274 kts | 328° |
| 2026-05-05 02:06 | 28.65374 | -81.29203 | 7092 ft | 279 kts | 323° |
| 2026-05-05 02:07 | 28.66940 | -81.30549 | 7839 ft | 283 kts | 321° |
| 2026-05-05 02:07 | 28.68474 | -81.31882 | 8799 ft | 281 kts | 321° |
| 2026-05-05 02:07 | 28.70020 | -81.33217 | 9646 ft | 283 kts | 321° |
| 2026-05-05 02:07 | 28.71592 | -81.34576 | 10426 ft | 286 kts | 321° |
| 2026-05-05 02:08 | 28.73258 | -81.35920 | 10875 ft | 303 kts | 328° |
| 2026-05-05 02:08 | 28.75237 | -81.36966 | 11236 ft | 323 kts | 340° |
| 2026-05-05 02:08 | 28.77481 | -81.37603 | 11557 ft | 342 kts | 347° |
| 2026-05-05 02:08 | 28.79882 | -81.38110 | 11857 ft | 360 kts | 348° |
| 2026-05-05 02:09 | 28.82400 | -81.38616 | 12147 ft | 377 kts | 349° |
| 2026-05-05 02:09 | 28.85047 | -81.39155 | 12453 ft | 392 kts | 349° |
| 2026-05-05 02:09 | 28.87772 | -81.39718 | 12962 ft | 400 kts | 348° |
| 2026-05-05 02:09 | 28.90521 | -81.40292 | 13610 ft | 402 kts | 348° |
| 2026-05-05 02:10 | 28.93254 | -81.40866 | 14226 ft | 406 kts | 348° |
| 2026-05-05 02:10 | 28.96089 | -81.41359 | 14851 ft | 409 kts | 351° |
| 2026-05-05 02:10 | 28.98892 | -81.41703 | 15455 ft | 412 kts | 352° |
| 2026-05-05 02:10 | 29.01781 | -81.42021 | 16034 ft | 416 kts | 352° |
| 2026-05-05 02:11 | 29.04680 | -81.42336 | 16582 ft | 419 kts | 352° |
| 2026-05-05 02:11 | 29.07600 | -81.42656 | 17106 ft | 422 kts | 352° |
| 2026-05-05 02:11 | 29.10511 | -81.42973 | 17620 ft | 426 kts | 352° |
| 2026-05-05 02:11 | 29.13486 | -81.43265 | 18142 ft | 429 kts | 352° |
| 2026-05-05 02:12 | 29.16480 | -81.43548 | 18676 ft | 431 kts | 352° |
| 2026-05-05 02:12 | 29.22453 | -81.44107 | 19704 ft | 435 kts | 351° |
| 2026-05-05 02:12 | 29.25493 | -81.44392 | 20190 ft | 437 kts | 351° |
| 2026-05-05 02:13 | 29.28509 | -81.44678 | 20672 ft | 439 kts | 351° |
| 2026-05-05 02:13 | 29.31571 | -81.44970 | 21113 ft | 442 kts | 351° |
| 2026-05-05 02:13 | 29.34679 | -81.45264 | 21600 ft | 444 kts | 351° |
| 2026-05-05 02:13 | 29.37733 | -81.45554 | 22082 ft | 445 kts | 351° |
| 2026-05-05 02:14 | 29.40834 | -81.45853 | 22547 ft | 446 kts | 350° |
| 2026-05-05 02:14 | 29.43962 | -81.46151 | 22984 ft | 449 kts | 350° |
| 2026-05-05 02:14 | 29.47040 | -81.46446 | 23387 ft | 451 kts | 350° |
| 2026-05-05 02:14 | 29.50183 | -81.46745 | 23787 ft | 453 kts | 350° |
| 2026-05-05 02:15 | 29.53334 | -81.47044 | 24177 ft | 455 kts | 350° |
| 2026-05-05 02:15 | 29.56517 | -81.47347 | 24587 ft | 456 kts | 350° |
| 2026-05-05 02:15 | 29.59677 | -81.47647 | 24954 ft | 458 kts | 350° |
| 2026-05-05 02:15 | 29.62849 | -81.47938 | 25368 ft | 458 kts | 350° |
| 2026-05-05 02:16 | 29.66028 | -81.48222 | 25895 ft | 456 kts | 350° |
| 2026-05-05 02:16 | 29.69179 | -81.48501 | 26387 ft | 453 kts | 349° |
| 2026-05-05 02:16 | 29.72330 | -81.48785 | 26861 ft | 452 kts | 349° |
| 2026-05-05 02:16 | 29.75454 | -81.49066 | 27346 ft | 449 kts | 349° |
| 2026-05-05 02:17 | 29.78556 | -81.49350 | 27782 ft | 448 kts | 349° |
| 2026-05-05 02:17 | 29.81655 | -81.49633 | 28208 ft | 446 kts | 348° |
| 2026-05-05 02:17 | 29.84756 | -81.49956 | 28642 ft | 442 kts | 346° |
| 2026-05-05 02:17 | 29.87740 | -81.50441 | 29079 ft | 437 kts | 343° |
| 2026-05-05 02:18 | 29.90726 | -81.51114 | 29473 ft | 432 kts | 340° |
| 2026-05-05 02:18 | 29.93630 | -81.51961 | 29820 ft | 428 kts | 337° |
| 2026-05-05 02:18 | 29.96459 | -81.52939 | 30153 ft | 425 kts | 336° |
| 2026-05-05 02:18 | 29.99285 | -81.53949 | 30511 ft | 423 kts | 336° |
| 2026-05-05 02:19 | 30.02080 | -81.54952 | 30869 ft | 421 kts | 336° |
| 2026-05-05 02:19 | 30.04870 | -81.55953 | 31184 ft | 419 kts | 336° |
| 2026-05-05 02:19 | 30.07656 | -81.56953 | 31452 ft | 419 kts | 336° |
| 2026-05-05 02:19 | 30.10429 | -81.57949 | 31761 ft | 417 kts | 336° |
| 2026-05-05 02:20 | 30.13172 | -81.58932 | 32104 ft | 414 kts | 336° |
| 2026-05-05 02:20 | 30.15931 | -81.59919 | 32395 ft | 413 kts | 336° |
| 2026-05-05 02:20 | 30.18664 | -81.60901 | 32688 ft | 411 kts | 336° |
| 2026-05-05 02:20 | 30.21392 | -81.61878 | 32994 ft | 409 kts | 336° |
| 2026-05-05 02:21 | 30.24096 | -81.62851 | 33254 ft | 408 kts | 336° |
| 2026-05-05 02:21 | 30.26823 | -81.63831 | 33535 ft | 406 kts | 336° |
| 2026-05-05 02:21 | 30.29517 | -81.64800 | 33804 ft | 405 kts | 336° |
| 2026-05-05 02:21 | 30.32186 | -81.65759 | 34084 ft | 404 kts | 335° |
| 2026-05-05 02:22 | 30.34878 | -81.66728 | 34385 ft | 403 kts | 335° |
| 2026-05-05 02:22 | 30.37534 | -81.67687 | 34625 ft | 403 kts | 335° |
| 2026-05-05 02:22 | 30.40215 | -81.68653 | 34792 ft | 404 kts | 335° |
| 2026-05-05 02:22 | 30.42924 | -81.69631 | 34927 ft | 406 kts | 335° |
| 2026-05-05 02:23 | 30.45637 | -81.70612 | 35113 ft | 406 kts | 335° |
| 2026-05-05 02:23 | 30.48308 | -81.71576 | 35317 ft | 406 kts | 335° |
| 2026-05-05 02:23 | 30.51042 | -81.72562 | 35497 ft | 406 kts | 335° |
| 2026-05-05 02:23 | 30.53712 | -81.73528 | 35650 ft | 407 kts | 335° |
| 2026-05-05 02:24 | 30.56409 | -81.74503 | 35833 ft | 407 kts | 335° |
| 2026-05-05 02:24 | 30.59125 | -81.75502 | 35963 ft | 406 kts | 334° |
| 2026-05-05 02:24 | 30.61775 | -81.76627 | 36071 ft | 405 kts | 332° |
| 2026-05-05 02:25 | 30.66876 | -81.79282 | 36068 ft | 402 kts | 328° |
| 2026-05-05 02:25 | 30.71891 | -81.82167 | 36068 ft | 401 kts | 327° |
| 2026-05-05 02:26 | 30.76897 | -81.85061 | 36071 ft | 400 kts | 327° |
| 2026-05-05 02:26 | 30.81844 | -81.87925 | 36068 ft | 399 kts | 328° |
| 2026-05-05 02:27 | 30.86800 | -81.90798 | 36069 ft | 399 kts | 327° |
| 2026-05-05 02:27 | 30.91763 | -81.93677 | 36072 ft | 397 kts | 327° |
| 2026-05-05 02:28 | 30.96712 | -81.96555 | 36069 ft | 397 kts | 327° |
| 2026-05-05 02:28 | 31.01632 | -81.99421 | 36072 ft | 396 kts | 327° |
| 2026-05-05 02:29 | 31.06578 | -82.02302 | 36068 ft | 396 kts | 328° |
| 2026-05-05 02:29 | 31.11510 | -82.05175 | 36072 ft | 397 kts | 327° |
| 2026-05-05 02:30 | 31.16422 | -82.08046 | 36072 ft | 396 kts | 328° |
| 2026-05-05 02:30 | 31.21347 | -82.10926 | 36067 ft | 395 kts | 328° |
| 2026-05-05 02:31 | 31.26265 | -82.13804 | 36075 ft | 396 kts | 328° |
| 2026-05-05 02:31 | 31.31162 | -82.16674 | 36066 ft | 396 kts | 328° |
| 2026-05-05 02:32 | 31.36092 | -82.19566 | 36071 ft | 396 kts | 327° |
| 2026-05-05 02:32 | 31.40998 | -82.22447 | 36064 ft | 395 kts | 328° |
| 2026-05-05 02:33 | 31.45925 | -82.25343 | 36069 ft | 395 kts | 328° |
| 2026-05-05 02:33 | 31.50836 | -82.28233 | 36068 ft | 396 kts | 327° |
| 2026-05-05 02:34 | 31.55760 | -82.31136 | 36067 ft | 396 kts | 327° |
| 2026-05-05 02:34 | 31.60681 | -82.34038 | 36066 ft | 396 kts | 327° |
| 2026-05-05 02:35 | 31.65593 | -82.36943 | 36072 ft | 395 kts | 328° |
| 2026-05-05 02:35 | 31.70485 | -82.39838 | 36070 ft | 395 kts | 327° |
| 2026-05-05 02:36 | 31.75401 | -82.42748 | 36074 ft | 395 kts | 327° |
| 2026-05-05 02:36 | 31.80307 | -82.45663 | 36070 ft | 394 kts | 327° |
| 2026-05-05 02:37 | 31.85195 | -82.48563 | 36072 ft | 394 kts | 327° |
| 2026-05-05 02:37 | 31.90065 | -82.51458 | 36071 ft | 393 kts | 327° |
| 2026-05-05 02:38 | 31.94795 | -82.54640 | 36074 ft | 390 kts | 322° |
| 2026-05-05 02:38 | 31.99212 | -82.58298 | 36067 ft | 385 kts | 318° |
| 2026-05-05 02:39 | 32.03306 | -82.62310 | 36084 ft | 384 kts | 315° |
| 2026-05-05 02:39 | 32.07354 | -82.66422 | 36071 ft | 386 kts | 315° |
| 2026-05-05 02:39 | 32.09391 | -82.68496 | 35940 ft | 386 kts | 315° |
| 2026-05-05 02:40 | 32.11430 | -82.70574 | 35678 ft | 384 kts | 314° |
| 2026-05-05 02:40 | 32.13400 | -82.72586 | 35424 ft | 383 kts | 315° |
| 2026-05-05 02:40 | 32.15389 | -82.74622 | 35156 ft | 381 kts | 315° |
| 2026-05-05 02:40 | 32.17382 | -82.76658 | 34911 ft | 379 kts | 314° |
| 2026-05-05 02:41 | 32.19378 | -82.78700 | 34640 ft | 380 kts | 315° |
| 2026-05-05 02:41 | 32.21384 | -82.80756 | 34407 ft | 381 kts | 315° |
| 2026-05-05 02:41 | 32.23382 | -82.82801 | 34157 ft | 384 kts | 315° |
| 2026-05-05 02:41 | 32.25409 | -82.84884 | 33881 ft | 385 kts | 315° |
| 2026-05-05 02:42 | 32.27420 | -82.86944 | 33659 ft | 389 kts | 314° |
| 2026-05-05 02:42 | 32.29466 | -82.89048 | 33427 ft | 392 kts | 315° |
| 2026-05-05 02:42 | 32.31550 | -82.91193 | 33196 ft | 395 kts | 315° |
| 2026-05-05 02:42 | 32.33599 | -82.93302 | 32904 ft | 397 kts | 315° |
| 2026-05-05 02:43 | 32.35690 | -82.95452 | 32373 ft | 401 kts | 315° |
| 2026-05-05 02:43 | 32.37801 | -82.97627 | 31709 ft | 402 kts | 315° |
| 2026-05-05 02:43 | 32.39899 | -82.99783 | 30980 ft | 405 kts | 315° |
| 2026-05-05 02:43 | 32.42041 | -83.01984 | 30174 ft | 410 kts | 315° |
| 2026-05-05 02:44 | 32.44200 | -83.04204 | 29284 ft | 414 kts | 315° |
| 2026-05-05 02:44 | 32.46378 | -83.06447 | 28409 ft | 419 kts | 315° |
| 2026-05-05 02:44 | 32.48564 | -83.08701 | 27518 ft | 422 kts | 316° |
| 2026-05-05 02:44 | 32.50793 | -83.11000 | 26616 ft | 426 kts | 316° |
| 2026-05-05 02:45 | 32.53014 | -83.13294 | 25687 ft | 430 kts | 316° |
| 2026-05-05 02:45 | 32.55290 | -83.15643 | 24695 ft | 435 kts | 316° |
| 2026-05-05 02:45 | 32.57549 | -83.17978 | 23911 ft | 435 kts | 316° |
| 2026-05-05 02:45 | 32.59819 | -83.20325 | 23321 ft | 431 kts | 316° |
| 2026-05-05 02:46 | 32.62069 | -83.22656 | 22721 ft | 426 kts | 316° |
| 2026-05-05 02:46 | 32.64280 | -83.24947 | 22135 ft | 422 kts | 316° |
| 2026-05-05 02:46 | 32.66462 | -83.27212 | 21542 ft | 418 kts | 316° |
| 2026-05-05 02:46 | 32.68661 | -83.29495 | 20942 ft | 415 kts | 316° |
| 2026-05-05 02:47 | 32.70813 | -83.31734 | 20346 ft | 413 kts | 316° |
| 2026-05-05 02:47 | 32.72953 | -83.33962 | 19759 ft | 410 kts | 316° |
| 2026-05-05 02:47 | 32.75095 | -83.36194 | 19169 ft | 407 kts | 316° |
| 2026-05-05 02:47 | 32.77196 | -83.38384 | 18589 ft | 405 kts | 316° |
| 2026-05-05 02:48 | 32.79320 | -83.40598 | 18004 ft | 403 kts | 316° |
| 2026-05-05 02:48 | 32.81411 | -83.42780 | 17419 ft | 401 kts | 316° |
| 2026-05-05 02:48 | 32.83493 | -83.44956 | 16947 ft | 394 kts | 317° |
| 2026-05-05 02:48 | 32.85525 | -83.47079 | 16592 ft | 385 kts | 317° |
| 2026-05-05 02:49 | 32.87492 | -83.49135 | 16321 ft | 373 kts | 317° |
| 2026-05-05 02:49 | 32.89426 | -83.51158 | 16099 ft | 362 kts | 317° |
| 2026-05-05 02:49 | 32.91281 | -83.53099 | 15877 ft | 351 kts | 317° |
| 2026-05-05 02:49 | 32.93090 | -83.54993 | 15666 ft | 340 kts | 317° |
| 2026-05-05 02:50 | 32.94840 | -83.56827 | 15473 ft | 331 kts | 316° |
| 2026-05-05 02:50 | 32.96552 | -83.58621 | 15049 ft | 331 kts | 317° |
| 2026-05-05 02:50 | 32.98284 | -83.60438 | 14614 ft | 331 kts | 317° |
| 2026-05-05 02:50 | 33.00011 | -83.62247 | 14189 ft | 330 kts | 317° |
| 2026-05-05 02:51 | 33.01731 | -83.64051 | 13766 ft | 329 kts | 317° |
| 2026-05-05 02:51 | 33.03447 | -83.65850 | 13348 ft | 329 kts | 317° |
| 2026-05-05 02:51 | 33.05163 | -83.67650 | 12922 ft | 328 kts | 316° |
| 2026-05-05 02:51 | 33.06859 | -83.69430 | 12516 ft | 327 kts | 316° |
| 2026-05-05 02:52 | 33.08567 | -83.71225 | 12086 ft | 326 kts | 316° |
| 2026-05-05 02:52 | 33.10253 | -83.72997 | 11855 ft | 317 kts | 316° |
| 2026-05-05 02:52 | 33.11893 | -83.74721 | 11744 ft | 304 kts | 317° |
| 2026-05-05 02:52 | 33.13437 | -83.76344 | 11625 ft | 293 kts | 316° |
| 2026-05-05 02:53 | 33.14948 | -83.77937 | 11407 ft | 287 kts | 316° |
| 2026-05-05 02:53 | 33.16441 | -83.79517 | 11051 ft | 287 kts | 316° |
| 2026-05-05 02:53 | 33.17932 | -83.81095 | 10700 ft | 286 kts | 316° |
| 2026-05-05 02:53 | 33.19384 | -83.82674 | 10373 ft | 284 kts | 314° |
| 2026-05-05 02:54 | 33.20802 | -83.84345 | 10029 ft | 283 kts | 313° |
| 2026-05-05 02:54 | 33.22204 | -83.86018 | 9691 ft | 282 kts | 313° |
| 2026-05-05 02:54 | 33.23589 | -83.87671 | 9372 ft | 281 kts | 313° |
| 2026-05-05 02:54 | 33.24951 | -83.89298 | 9035 ft | 280 kts | 313° |
| 2026-05-05 02:55 | 33.26330 | -83.90945 | 8704 ft | 279 kts | 313° |
| 2026-05-05 02:55 | 33.27709 | -83.92592 | 8375 ft | 278 kts | 313° |
| 2026-05-05 02:55 | 33.29060 | -83.94202 | 8048 ft | 276 kts | 313° |
| 2026-05-05 02:55 | 33.30440 | -83.95850 | 7916 ft | 281 kts | 313° |
| 2026-05-05 02:56 | 33.31826 | -83.97508 | 7945 ft | 284 kts | 313° |
| 2026-05-05 02:56 | 33.33229 | -83.99190 | 7972 ft | 284 kts | 313° |
| 2026-05-05 02:56 | 33.34627 | -84.00864 | 7993 ft | 284 kts | 313° |
| 2026-05-05 02:56 | 33.36135 | -84.02372 | 7971 ft | 286 kts | 331° |
| 2026-05-05 02:57 | 33.38063 | -84.03025 | 7984 ft | 289 kts | 355° |
| 2026-05-05 02:57 | 33.40065 | -84.03066 | 7996 ft | 290 kts | 359° |
| 2026-05-05 02:57 | 33.42094 | -84.03060 | 8001 ft | 290 kts | 359° |
| 2026-05-05 02:57 | 33.44122 | -84.03067 | 7988 ft | 290 kts | 359° |
| 2026-05-05 02:58 | 33.46149 | -84.03092 | 7988 ft | 290 kts | 359° |
| 2026-05-05 02:58 | 33.48148 | -84.03019 | 7979 ft | 291 kts | 4° |
| 2026-05-05 02:58 | 33.50161 | -84.02726 | 7992 ft | 291 kts | 9° |
| 2026-05-05 02:58 | 33.52156 | -84.02224 | 7958 ft | 292 kts | 12° |
| 2026-05-05 02:59 | 33.54157 | -84.01753 | 7578 ft | 293 kts | 8° |
| 2026-05-05 02:59 | 33.56163 | -84.01366 | 7220 ft | 291 kts | 8° |
| 2026-05-05 02:59 | 33.58138 | -84.01006 | 7000 ft | 283 kts | 8° |
| 2026-05-05 02:59 | 33.60043 | -84.00674 | 6993 ft | 267 kts | 5° |
| 2026-05-05 03:00 | 33.61792 | -84.00878 | 6962 ft | 248 kts | 332° |
| 2026-05-05 03:00 | 33.63054 | -84.02207 | 6827 ft | 241 kts | 295° |
| 2026-05-05 03:00 | 33.63405 | -84.04118 | 6453 ft | 236 kts | 268° |
| 2026-05-05 03:00 | 33.63365 | -84.06062 | 6150 ft | 235 kts | 265° |
| 2026-05-05 03:01 | 33.63298 | -84.08021 | 5869 ft | 233 kts | 265° |
| 2026-05-05 03:01 | 33.63248 | -84.09961 | 5615 ft | 229 kts | 266° |
| 2026-05-05 03:01 | 33.63220 | -84.11855 | 5378 ft | 225 kts | 267° |
| 2026-05-05 03:01 | 33.63206 | -84.13691 | 5148 ft | 221 kts | 267° |
| 2026-05-05 03:02 | 33.63200 | -84.15518 | 4931 ft | 216 kts | 267° |
| 2026-05-05 03:02 | 33.63199 | -84.17293 | 4726 ft | 211 kts | 267° |
| 2026-05-05 03:02 | 33.63200 | -84.18995 | 4658 ft | 195 kts | 266° |
| 2026-05-05 03:02 | 33.63201 | -84.20600 | 4401 ft | 191 kts | 266° |
| 2026-05-05 03:03 | 33.63201 | -84.22174 | 4137 ft | 186 kts | 266° |
| 2026-05-05 03:03 | 33.63200 | -84.23709 | 3880 ft | 182 kts | 265° |
| 2026-05-05 03:03 | 33.63203 | -84.25197 | 3661 ft | 174 kts | 266° |
| 2026-05-05 03:03 | 33.63205 | -84.26614 | 3425 ft | 167 kts | 264° |
| 2026-05-05 03:04 | 33.63196 | -84.27947 | 3202 ft | 152 kts | 263° |
| 2026-05-05 03:04 | 33.63193 | -84.29170 | 2995 ft | 144 kts | 263° |
| 2026-05-05 03:04 | 33.63189 | -84.30368 | 2820 ft | 143 kts | 264° |
| 2026-05-05 03:04 | 33.63186 | -84.31548 | 2646 ft | 143 kts | 265° |
| 2026-05-05 03:05 | 33.63186 | -84.32743 | 2469 ft | 142 kts | 265° |
| 2026-05-05 03:05 | 33.63186 | -84.33935 | 2287 ft | 142 kts | 265° |
| 2026-05-05 03:05 | 33.63187 | -84.35119 | 2103 ft | 142 kts | 265° |
| 2026-05-05 03:05 | 33.63187 | -84.36301 | 1917 ft | 143 kts | 266° |
| 2026-05-05 03:06 | 33.63186 | -84.37497 | 1728 ft | 143 kts | 266° |
| 2026-05-05 03:06 | 33.63186 | -84.38686 | 1542 ft | 143 kts | 266° |
| 2026-05-05 03:06 | 33.63184 | -84.39869 | 1353 ft | 141 kts | 268° |
| 2026-05-05 03:06 | 33.63182 | -84.41047 | 1175 ft | 140 kts | 266° |
| 2026-05-05 03:07 | 33.63183 | -84.42212 | 1027 ft | 136 kts | 265° |
| 2026-05-05 03:07 | 33.63179 | -84.43123 | 1020 ft | 70 kts | 270° |
| 2026-05-05 03:07 | 33.63182 | -84.43420 | 1023 ft | 22 kts | 274° |
| 2026-05-05 03:07 | 33.63220 | -84.43599 | 1022 ft | 21 kts | 292° |
| 2026-05-05 03:08 | 33.63287 | -84.43726 | 1020 ft | 15 kts | 334° |
| 2026-05-05 03:08 | 33.63352 | -84.43698 | 1019 ft | 11 kts | 68° |
| 2026-05-05 03:08 | 33.63361 | -84.43597 | 1018 ft | 13 kts | 90° |
| 2026-05-05 03:08 | 33.63361 | -84.43486 | 1019 ft | 13 kts | 92° |
| 2026-05-05 03:09 | 33.63362 | -84.43373 | 1019 ft | 14 kts | 91° |
| 2026-05-05 03:09 | 33.63361 | -84.43250 | 1018 ft | 15 kts | 90° |
| 2026-05-05 03:09 | 33.63361 | -84.43117 | 1016 ft | 16 kts | 90° |
| 2026-05-05 03:09 | 33.63361 | -84.42973 | 1015 ft | 17 kts | 90° |
| 2026-05-05 03:10 | 33.63375 | -84.42874 | 1014 ft | 11 kts | 51° |
| 2026-05-05 03:10 | 33.63462 | -84.42847 | 1011 ft | 15 kts | 0° |
| 2026-05-05 03:10 | 33.63555 | -84.42834 | 1016 ft | 10 kts | 34° |
| 2026-05-05 03:10 | 33.63598 | -84.42787 | 1021 ft | 7 kts | 31° |
| 2026-05-05 03:11 | 33.63655 | -84.42777 | 1024 ft | 10 kts | 337° |
| 2026-05-05 03:11 | 33.63730 | -84.42806 | 1024 ft | 12 kts | 360° |
| 2026-05-05 03:11 | 33.63829 | -84.42806 | 1024 ft | 15 kts | 359° |
| 2026-05-05 03:11 | 33.63958 | -84.42806 | 1024 ft | 19 kts | 1° |
| 2026-05-05 03:12 | 33.64044 | -84.42807 | 1024 ft | 5 kts | 354° |
| 2026-05-05 03:12 | 33.64063 | -84.42844 | 1024 ft | 6 kts | 276° |
| 2026-05-05 03:12 | 33.64063 | -84.42879 | 1024 ft | 1 kts | 270° |